Time;durP1;ratioP1;P1;durP2;ratioP2;P2;SDS_P1;SDS_P2;PMS_P1;PMS_P2;Temp;Humidity;BMP_temperature;BMP_pressure;BME280_temperature;BME280_humidity;BME280_pressure;Samples;Min_cycle;Max_cycle;Signal;HPM_P1;HPM_P2
2022/10/30 00:00:16;;;;;;;11.77;4.13;;;13.70;99.90;;;;;;5036138;28;20041;-83
2022/10/30 00:02:42;;;;;;;11.15;3.88;;;13.70;99.90;;;;;;5050779;28;20045;-83
2022/10/30 00:05:08;;;;;;;4.63;2.97;;;13.80;99.90;;;;;;5053501;28;20543;-82
2022/10/30 00:07:34;;;;;;;10.43;4.07;;;13.80;99.90;;;;;;5051276;28;20472;-83
2022/10/30 00:09:59;;;;;;;6.55;3.03;;;13.90;99.90;;;;;;5065350;28;20320;-82
2022/10/30 00:12:25;;;;;;;14.25;3.88;;;13.90;99.90;;;;;;5049192;28;20041;-82
2022/10/30 00:14:51;;;;;;;11.30;3.80;;;13.90;99.90;;;;;;5049426;28;20053;-82
2022/10/30 00:17:16;;;;;;;16.10;4.32;;;14.00;99.90;;;;;;5050771;28;20047;-82
2022/10/30 00:19:42;;;;;;;7.60;3.53;;;14.00;99.90;;;;;;5049596;28;20049;-82
2022/10/30 00:22:09;;;;;;;6.20;3.00;;;14.10;99.90;;;;;;5048203;28;21184;-83
2022/10/30 00:24:34;;;;;;;8.18;3.08;;;14.10;99.90;;;;;;5040416;28;20163;-82
2022/10/30 00:27:00;;;;;;;8.35;4.00;;;14.10;99.90;;;;;;5055960;28;20132;-84
2022/10/30 00:29:26;;;;;;;9.95;3.90;;;14.10;99.90;;;;;;5043256;28;20072;-82
2022/10/30 00:31:54;;;;;;;9.48;3.92;;;14.10;99.90;;;;;;5041770;28;20083;-82
2022/10/30 00:34:20;;;;;;;10.63;2.88;;;14.10;99.90;;;;;;5048275;28;20045;-82
2022/10/30 00:36:45;;;;;;;10.70;3.92;;;14.00;99.90;;;;;;5058918;28;20498;-82
2022/10/30 00:39:13;;;;;;;7.28;3.17;;;14.00;99.90;;;;;;5046231;28;20482;-82
2022/10/30 00:41:40;;;;;;;9.88;4.22;;;13.90;99.90;;;;;;5049711;28;20044;-82
2022/10/30 00:44:31;;;;;;;13.38;3.65;;;13.90;99.90;;;;;;5038710;28;20054;-82
2022/10/30 00:46:59;;;;;;;7.38;3.55;;;13.80;99.90;;;;;;5048967;28;20084;-82
2022/10/30 00:49:24;;;;;;;11.93;3.70;;;13.70;99.90;;;;;;5049110;28;20120;-82
2022/10/30 00:51:54;;;;;;;12.38;4.57;;;13.70;99.90;;;;;;5050200;28;20124;-82
2022/10/30 00:54:21;;;;;;;16.13;3.88;;;13.60;99.90;;;;;;5043290;28;20091;-82
2022/10/30 00:56:48;;;;;;;6.45;3.97;;;13.60;99.90;;;;;;5026993;28;20074;-82
2022/10/30 00:59:27;;;;;;;6.97;3.35;;;13.60;99.90;;;;;;5047998;28;20045;-82
2022/10/30 01:01:53;;;;;;;10.98;3.40;;;13.60;99.90;;;;;;5045042;28;20050;-81
2022/10/30 01:04:21;;;;;;;6.03;3.78;;;13.50;99.90;;;;;;5048586;28;20053;-82
2022/10/30 01:06:50;;;;;;;6.95;3.13;;;13.50;99.90;;;;;;5048327;28;20045;-82
2022/10/30 01:09:18;;;;;;;6.43;3.20;;;13.40;99.90;;;;;;5040265;28;20045;-82
2022/10/30 01:11:44;;;;;;;8.63;3.08;;;13.40;99.90;;;;;;5058333;28;20530;-82
2022/10/30 01:14:12;;;;;;;10.90;3.10;;;13.40;99.90;;;;;;5055848;28;20056;-82
2022/10/30 01:16:41;;;;;;;8.70;3.38;;;13.40;99.90;;;;;;5056225;28;20050;-82
2022/10/30 01:19:43;;;;;;;9.95;3.40;;;13.40;99.90;;;;;;5037556;28;20092;-82
2022/10/30 01:22:26;;;;;;;9.30;2.92;;;13.30;99.90;;;;;;5040814;28;20458;-82
2022/10/30 01:24:55;;;;;;;9.18;3.08;;;13.30;99.90;;;;;;5032597;28;20056;-82
2022/10/30 01:27:33;;;;;;;7.40;3.95;;;13.30;99.90;;;;;;5045357;28;20454;-82
2022/10/30 01:30:13;;;;;;;6.30;2.75;;;13.30;99.90;;;;;;5040706;28;20057;-82
2022/10/30 01:33:07;;;;;;;6.95;3.85;;;13.30;99.90;;;;;;5054431;28;20488;-82
2022/10/30 01:35:52;;;;;;;13.80;4.07;;;13.20;99.90;;;;;;5052908;28;20089;-82
2022/10/30 01:38:25;;;;;;;5.85;3.38;;;13.10;99.90;;;;;;5029691;28;20049;-82
2022/10/30 01:40:51;;;;;;;6.10;2.92;;;13.20;99.90;;;;;;5051598;28;20099;-82
2022/10/30 01:43:16;;;;;;;6.00;3.50;;;13.10;99.90;;;;;;5062815;28;20515;-82
2022/10/30 01:46:03;;;;;;;7.97;2.67;;;13.10;99.90;;;;;;5052817;28;20056;-82
2022/10/30 01:48:50;;;;;;;6.72;2.83;;;13.10;99.90;;;;;;5051626;28;20496;-83
2022/10/30 01:51:44;;;;;;;6.43;2.97;;;13.10;99.90;;;;;;5052087;28;20064;-82
2022/10/30 01:54:21;;;;;;;9.45;3.72;;;13.00;99.90;;;;;;5054742;28;20590;-82
2022/10/30 01:57:05;;;;;;;7.72;3.22;;;13.00;99.90;;;;;;5037243;28;20083;-82
2022/10/30 01:59:35;;;;;;;7.82;3.20;;;13.00;99.90;;;;;;5047828;28;20550;-82
2022/10/30 02:02:01;;;;;;;11.20;3.85;;;13.00;99.90;;;;;;5052763;28;20048;-82
2022/10/30 02:04:28;;;;;;;7.78;3.20;;;13.00;99.90;;;;;;5053726;28;20045;-82
2022/10/30 02:06:54;;;;;;;5.55;3.40;;;12.90;99.90;;;;;;5053999;28;20045;-82
2022/10/30 02:09:19;;;;;;;12.88;3.33;;;12.90;99.90;;;;;;5051753;28;20052;-83
2022/10/30 02:11:46;;;;;;;9.15;2.72;;;12.90;99.90;;;;;;5036622;28;20473;-82
2022/10/30 02:14:17;;;;;;;10.20;4.32;;;12.80;99.90;;;;;;5046405;28;20063;-83
2022/10/30 02:16:49;;;;;;;12.85;4.15;;;12.80;99.90;;;;;;5040595;28;20523;-83
2022/10/30 02:19:16;;;;;;;4.85;3.33;;;12.80;99.90;;;;;;5060033;28;20041;-82
2022/10/30 02:21:41;;;;;;;8.95;3.10;;;12.80;99.90;;;;;;5036070;28;20052;-82
2022/10/30 02:24:07;;;;;;;9.63;3.42;;;12.80;99.90;;;;;;5052559;28;20041;-82
2022/10/30 02:26:33;;;;;;;16.05;4.82;;;12.80;99.90;;;;;;5052175;28;20380;-82
2022/10/30 02:28:58;;;;;;;10.10;4.35;;;12.80;99.90;;;;;;5051779;28;20052;-82
2022/10/30 02:31:24;;;;;;;7.40;4.05;;;12.80;99.90;;;;;;5048607;28;20045;-82
2022/10/30 02:33:50;;;;;;;9.63;3.08;;;12.70;99.90;;;;;;5035068;28;20054;-82
2022/10/30 02:36:15;;;;;;;7.05;2.90;;;12.70;99.90;;;;;;5041671;28;20480;-82
2022/10/30 02:38:42;;;;;;;9.95;5.20;;;12.70;99.90;;;;;;5047956;28;20059;-82
2022/10/30 02:41:08;;;;;;;14.68;4.53;;;12.70;99.90;;;;;;5052771;28;20545;-82
2022/10/30 02:43:33;;;;;;;6.07;2.53;;;12.60;99.90;;;;;;5051900;28;20147;-82
2022/10/30 02:45:59;;;;;;;9.38;3.13;;;12.60;99.90;;;;;;5051643;28;20045;-82
2022/10/30 02:48:25;;;;;;;7.80;3.92;;;12.60;99.90;;;;;;5048755;28;20047;-82
2022/10/30 02:50:50;;;;;;;4.90;3.03;;;12.50;99.90;;;;;;5053401;28;20049;-82
2022/10/30 02:53:16;;;;;;;8.48;3.58;;;12.60;99.90;;;;;;5051511;28;20049;-82
2022/10/30 02:55:42;;;;;;;8.77;3.83;;;12.50;99.90;;;;;;5051978;28;20207;-82
2022/10/30 02:58:07;;;;;;;15.57;3.83;;;12.50;99.90;;;;;;5035455;28;20087;-82
2022/10/30 03:00:33;;;;;;;9.38;3.70;;;12.50;99.90;;;;;;5050731;28;20046;-82
2022/10/30 03:02:59;;;;;;;6.80;4.07;;;12.50;99.90;;;;;;5051884;28;20053;-82
2022/10/30 03:05:25;;;;;;;12.27;3.42;;;12.50;99.90;;;;;;5052030;28;20040;-82
2022/10/30 03:07:50;;;;;;;5.22;3.15;;;12.50;99.90;;;;;;5040825;28;20048;-82
2022/10/30 03:10:17;;;;;;;10.43;4.00;;;12.50;99.90;;;;;;5048353;28;20386;-82
2022/10/30 03:12:43;;;;;;;7.88;2.88;;;12.40;99.90;;;;;;5041570;28;20041;-82
2022/10/30 03:15:09;;;;;;;9.43;3.70;;;12.40;99.90;;;;;;5052160;28;20159;-82
2022/10/30 03:17:35;;;;;;;6.38;3.58;;;12.40;99.90;;;;;;5053247;28;20090;-82
2022/10/30 03:20:00;;;;;;;7.43;4.30;;;12.40;99.90;;;;;;5043073;28;20048;-82
2022/10/30 03:22:26;;;;;;;9.85;3.65;;;12.30;99.90;;;;;;5017436;28;20049;-82
2022/10/30 03:24:52;;;;;;;11.73;3.47;;;12.30;99.90;;;;;;5023945;28;20080;-83
2022/10/30 03:27:17;;;;;;;8.07;3.25;;;12.30;99.90;;;;;;5052243;28;20479;-82
2022/10/30 03:29:43;;;;;;;7.25;4.63;;;12.30;99.90;;;;;;5051664;28;20110;-82
2022/10/30 03:32:10;;;;;;;6.22;3.15;;;12.30;99.90;;;;;;5051750;28;20475;-82
2022/10/30 03:34:36;;;;;;;9.88;3.90;;;12.30;99.90;;;;;;5046430;28;20049;-82
2022/10/30 03:37:03;;;;;;;6.90;3.00;;;12.30;99.90;;;;;;5044858;28;20075;-82
2022/10/30 03:39:28;;;;;;;8.55;2.83;;;12.30;99.90;;;;;;5052313;28;20053;-82
2022/10/30 03:41:54;;;;;;;8.95;4.53;;;12.30;99.90;;;;;;5034598;28;20514;-82
2022/10/30 03:44:20;;;;;;;9.80;3.25;;;12.30;99.90;;;;;;5051148;28;20482;-82
2022/10/30 03:46:45;;;;;;;7.43;3.83;;;12.30;99.90;;;;;;5052818;28;20084;-82
2022/10/30 03:49:11;;;;;;;12.20;4.00;;;12.20;99.90;;;;;;5040358;28;20068;-82
2022/10/30 03:51:37;;;;;;;6.78;3.20;;;12.20;99.90;;;;;;5017270;28;20049;-82
2022/10/30 03:54:02;;;;;;;9.95;3.92;;;12.20;99.90;;;;;;5051171;28;20091;-82
2022/10/30 03:56:28;;;;;;;7.88;4.28;;;12.20;99.90;;;;;;5034986;28;20052;-82
2022/10/30 03:58:54;;;;;;;12.30;3.72;;;12.20;99.90;;;;;;5048625;28;20045;-82
2022/10/30 04:01:19;;;;;;;10.95;3.92;;;12.20;99.90;;;;;;5050345;28;20412;-84
2022/10/30 04:03:45;;;;;;;10.23;3.53;;;12.20;99.90;;;;;;5051070;28;20049;-82
2022/10/30 04:06:11;;;;;;;8.00;2.97;;;12.20;99.90;;;;;;5049680;28;20044;-82
2022/10/30 04:08:36;;;;;;;13.50;3.67;;;12.20;99.90;;;;;;5050652;28;20044;-82
2022/10/30 04:11:03;;;;;;;9.07;3.42;;;12.20;99.90;;;;;;5047850;28;20045;-83
2022/10/30 04:13:28;;;;;;;6.72;2.72;;;12.20;99.90;;;;;;5033090;28;20056;-83
2022/10/30 04:15:54;;;;;;;7.90;2.92;;;12.20;99.90;;;;;;5033708;28;20041;-82
2022/10/30 04:18:19;;;;;;;12.55;4.05;;;12.20;99.90;;;;;;5032635;28;20053;-82
2022/10/30 04:20:46;;;;;;;7.53;3.30;;;12.20;99.90;;;;;;5048956;28;20044;-82
2022/10/30 04:23:14;;;;;;;9.73;3.50;;;12.20;99.90;;;;;;5050757;28;20134;-82
2022/10/30 04:25:40;;;;;;;10.63;3.53;;;12.10;99.90;;;;;;5047079;28;20149;-82
2022/10/30 04:28:06;;;;;;;18.88;4.47;;;12.10;99.90;;;;;;5031230;28;20136;-82
2022/10/30 04:30:34;;;;;;;7.03;3.03;;;12.10;99.90;;;;;;5035966;28;20047;-82
2022/10/30 04:33:01;;;;;;;11.77;3.40;;;12.10;99.90;;;;;;5017892;28;20053;-82
2022/10/30 04:35:29;;;;;;;12.93;4.05;;;12.10;99.90;;;;;;5036606;28;20061;-81
2022/10/30 04:37:59;;;;;;;12.90;3.90;;;12.10;99.90;;;;;;5043916;28;20127;-83
2022/10/30 04:40:30;;;;;;;6.40;2.97;;;12.00;99.90;;;;;;5051416;28;20056;-83
2022/10/30 04:42:56;;;;;;;7.93;3.88;;;12.00;99.90;;;;;;5050574;28;20060;-82
2022/10/30 04:45:22;;;;;;;11.70;3.03;;;12.00;99.90;;;;;;5067876;28;20037;-82
2022/10/30 04:47:48;;;;;;;7.07;3.70;;;12.00;99.90;;;;;;5051219;28;20404;-82
2022/10/30 04:50:14;;;;;;;15.55;3.80;;;12.00;99.90;;;;;;5050625;28;20419;-83
2022/10/30 04:52:40;;;;;;;8.27;4.38;;;12.00;99.90;;;;;;5052101;28;20049;-82
2022/10/30 04:55:07;;;;;;;4.30;3.40;;;12.00;99.90;;;;;;5048268;28;20041;-82
2022/10/30 04:57:34;;;;;;;10.02;4.65;;;12.00;99.90;;;;;;5034309;28;20400;-82
2022/10/30 04:59:59;;;;;;;4.68;2.72;;;11.90;99.90;;;;;;5050049;28;20098;-82
2022/10/30 05:02:25;;;;;;;7.63;3.10;;;11.90;99.90;;;;;;5050344;28;20399;-82
2022/10/30 05:04:53;;;;;;;7.15;3.58;;;11.90;99.90;;;;;;5050491;28;20041;-82
2022/10/30 05:07:19;;;;;;;9.77;3.53;;;11.90;99.90;;;;;;5049997;28;20056;-83
2022/10/30 05:09:45;;;;;;;7.40;3.50;;;11.90;99.90;;;;;;5069128;28;20044;-82
2022/10/30 05:12:10;;;;;;;7.10;3.78;;;11.90;99.90;;;;;;5052983;28;20468;-82
2022/10/30 05:14:36;;;;;;;5.90;3.20;;;11.90;99.90;;;;;;5049588;28;20548;-82
2022/10/30 05:17:02;;;;;;;14.10;3.55;;;11.90;99.90;;;;;;5051514;28;20045;-82
2022/10/30 05:19:27;;;;;;;14.70;4.55;;;11.80;99.90;;;;;;5050400;28;20048;-82
2022/10/30 05:21:54;;;;;;;9.25;4.88;;;11.80;99.90;;;;;;5040075;28;20063;-82
2022/10/30 05:24:20;;;;;;;8.63;3.17;;;11.80;99.90;;;;;;5047849;28;20045;-82
2022/10/30 05:26:45;;;;;;;8.52;3.60;;;11.80;99.90;;;;;;5039046;28;20051;-83
2022/10/30 05:29:12;;;;;;;10.93;3.85;;;11.70;99.90;;;;;;5018366;28;20049;-82
2022/10/30 05:31:38;;;;;;;9.20;3.28;;;11.80;99.90;;;;;;5051959;28;20488;-82
2022/10/30 05:34:04;;;;;;;10.32;3.53;;;11.80;99.90;;;;;;5052208;28;20037;-83
2022/10/30 05:36:29;;;;;;;5.68;3.45;;;11.80;99.90;;;;;;5029719;28;20335;-82
2022/10/30 05:38:55;;;;;;;6.75;4.10;;;11.80;99.90;;;;;;5040469;28;20419;-82
2022/10/30 05:41:21;;;;;;;8.52;3.75;;;11.80;99.90;;;;;;5053150;28;20076;-82
2022/10/30 05:43:47;;;;;;;12.52;4.20;;;11.70;99.90;;;;;;5051796;28;20114;-83
2022/10/30 05:46:12;;;;;;;11.13;2.92;;;11.60;99.90;;;;;;5051502;28;20492;-82
2022/10/30 05:48:38;;;;;;;9.35;4.63;;;11.60;99.90;;;;;;5053493;28;20542;-82
2022/10/30 05:51:05;;;;;;;10.90;5.07;;;11.60;99.90;;;;;;5052430;28;20048;-82
2022/10/30 05:53:31;;;;;;;6.22;2.92;;;11.60;99.90;;;;;;5053229;28;20060;-84
2022/10/30 05:55:57;;;;;;;13.27;3.67;;;11.60;99.90;;;;;;5033607;28;20503;-82
2022/10/30 05:58:23;;;;;;;8.48;3.35;;;11.60;99.90;;;;;;5044704;28;20081;-82
2022/10/30 06:00:49;;;;;;;6.95;3.53;;;11.50;99.90;;;;;;5049634;28;20091;-82
2022/10/30 06:03:15;;;;;;;7.22;3.80;;;11.60;99.90;;;;;;5053202;28;20620;-83
2022/10/30 06:05:44;;;;;;;12.93;4.75;;;11.60;99.90;;;;;;5052749;28;20071;-82
2022/10/30 06:08:10;;;;;;;4.18;3.03;;;11.50;99.90;;;;;;5034386;28;20495;-82
2022/10/30 06:10:36;;;;;;;10.68;4.15;;;11.50;99.90;;;;;;5051430;28;20081;-83
2022/10/30 06:13:04;;;;;;;8.63;4.28;;;11.50;99.90;;;;;;5052182;28;20447;-82
2022/10/30 06:15:31;;;;;;;12.63;4.38;;;11.50;99.90;;;;;;5048794;28;20045;-82
2022/10/30 06:17:57;;;;;;;10.05;3.40;;;11.50;99.90;;;;;;5069686;28;20438;-82
2022/10/30 06:20:26;;;;;;;8.15;4.57;;;11.50;99.90;;;;;;5052863;28;20099;-82
2022/10/30 06:22:59;;;;;;;10.27;4.90;;;11.50;99.90;;;;;;5051830;28;20119;-82
2022/10/30 06:25:26;;;;;;;9.95;4.20;;;11.60;99.90;;;;;;5048145;28;20080;-82
2022/10/30 06:27:52;;;;;;;7.32;3.10;;;11.50;99.90;;;;;;5052042;28;20057;-82
2022/10/30 06:30:18;;;;;;;18.00;5.93;;;11.50;99.90;;;;;;5053861;28;20446;-83
2022/10/30 06:32:44;;;;;;;7.40;3.97;;;11.50;99.90;;;;;;5041312;28;20473;-82
2022/10/30 06:35:10;;;;;;;5.22;4.18;;;11.50;99.90;;;;;;5037627;28;20183;-82
2022/10/30 06:37:38;;;;;;;7.00;3.95;;;11.60;99.90;;;;;;5052746;28;20167;-82
2022/10/30 06:40:06;;;;;;;17.40;3.53;;;11.60;99.90;;;;;;5053967;28;20055;-83
2022/10/30 06:42:31;;;;;;;11.38;4.18;;;11.60;99.90;;;;;;5054926;28;20123;-82
2022/10/30 06:44:57;;;;;;;8.93;3.72;;;11.60;99.90;;;;;;5062534;28;20093;-82
2022/10/30 06:47:23;;;;;;;7.63;4.10;;;11.60;99.90;;;;;;5045174;28;20048;-83
2022/10/30 06:49:48;;;;;;;9.95;4.18;;;11.60;99.90;;;;;;5061741;28;20118;-82
2022/10/30 06:52:14;;;;;;;12.05;5.32;;;11.60;99.90;;;;;;5043507;28;20045;-83
2022/10/30 06:54:39;;;;;;;13.90;4.35;;;11.60;99.90;;;;;;5043351;28;20132;-83
2022/10/30 06:57:05;;;;;;;5.97;3.70;;;11.60;99.90;;;;;;5049653;28;20052;-83
2022/10/30 06:59:31;;;;;;;11.57;4.10;;;11.60;99.90;;;;;;5052423;28;20051;-82
2022/10/30 07:01:56;;;;;;;10.88;4.57;;;11.70;99.90;;;;;;5054503;28;20366;-82
2022/10/30 07:04:22;;;;;;;7.57;4.43;;;11.70;99.90;;;;;;5053890;28;20450;-83
2022/10/30 07:06:48;;;;;;;11.15;4.45;;;11.70;99.90;;;;;;5053093;28;20045;-83
2022/10/30 07:09:13;;;;;;;19.20;4.60;;;11.70;99.90;;;;;;5052305;28;20124;-82
2022/10/30 07:11:44;;;;;;;8.50;4.43;;;11.70;99.90;;;;;;5052231;28;20083;-82
2022/10/30 07:14:11;;;;;;;8.23;4.00;;;11.80;99.90;;;;;;5067006;28;20116;-82
2022/10/30 07:16:36;;;;;;;7.90;3.28;;;11.80;99.90;;;;;;5052030;28;20106;-82
2022/10/30 07:19:02;;;;;;;12.43;5.22;;;11.80;99.90;;;;;;5051344;28;20045;-83
2022/10/30 07:21:28;;;;;;;8.38;4.60;;;11.80;99.90;;;;;;5052054;28;20051;-85
2022/10/30 07:23:54;;;;;;;9.75;3.83;;;11.80;99.90;;;;;;5050264;28;20549;-83
2022/10/30 07:26:19;;;;;;;11.20;4.65;;;11.80;99.90;;;;;;5038837;28;20084;-83
2022/10/30 07:28:45;;;;;;;11.43;4.22;;;11.90;99.90;;;;;;5051723;28;20383;-83
2022/10/30 07:31:11;;;;;;;12.73;4.90;;;11.90;99.90;;;;;;5025772;28;20073;-82
2022/10/30 07:33:37;;;;;;;9.55;4.80;;;12.00;99.90;;;;;;5045749;28;20090;-82
2022/10/30 07:36:02;;;;;;;8.25;3.90;;;12.00;99.90;;;;;;5059507;28;20480;-82
2022/10/30 07:38:28;;;;;;;7.70;3.72;;;12.00;99.90;;;;;;5066080;28;20098;-82
2022/10/30 07:40:54;;;;;;;6.63;4.53;;;12.00;99.90;;;;;;5034883;28;20049;-82
2022/10/30 07:43:20;;;;;;;11.65;4.30;;;12.00;99.90;;;;;;5051626;28;20147;-82
2022/10/30 07:45:46;;;;;;;15.57;5.03;;;12.10;99.90;;;;;;5051147;28;20053;-83
2022/10/30 07:48:11;;;;;;;6.47;4.40;;;12.10;99.90;;;;;;5034972;28;20087;-83
2022/10/30 07:50:37;;;;;;;10.93;5.88;;;12.10;99.90;;;;;;5041790;28;20170;-82
2022/10/30 07:53:02;;;;;;;9.75;4.93;;;12.20;99.90;;;;;;5062727;28;20072;-84
2022/10/30 07:55:28;;;;;;;12.60;4.85;;;12.30;99.90;;;;;;5048714;28;20508;-83
2022/10/30 07:57:54;;;;;;;8.02;4.93;;;12.30;99.90;;;;;;5030478;28;20048;-83
2022/10/30 08:00:20;;;;;;;10.98;5.07;;;12.40;99.90;;;;;;5041516;28;20045;-83
2022/10/30 08:02:50;;;;;;;16.40;5.78;;;12.40;99.90;;;;;;5035478;28;20081;-83
2022/10/30 08:05:16;;;;;;;17.95;6.07;;;12.50;99.90;;;;;;5032084;28;20132;-85
2022/10/30 08:07:45;;;;;;;14.60;5.50;;;12.50;99.90;;;;;;5062988;28;20543;-83
2022/10/30 08:10:11;;;;;;;13.13;6.13;;;12.60;99.90;;;;;;5059747;28;20057;-82
2022/10/30 08:12:39;;;;;;;9.80;5.53;;;12.60;99.90;;;;;;5031951;28;20045;-83
2022/10/30 08:15:05;;;;;;;11.05;5.68;;;12.70;99.90;;;;;;5046534;28;20105;-83
2022/10/30 08:17:31;;;;;;;10.68;5.00;;;12.70;99.90;;;;;;5062641;28;20088;-82
2022/10/30 08:19:57;;;;;;;12.75;5.50;;;12.80;99.90;;;;;;5046761;28;20069;-83
2022/10/30 08:22:23;;;;;;;9.77;5.20;;;12.80;99.90;;;;;;5048932;28;20484;-82
2022/10/30 08:24:49;;;;;;;12.23;6.05;;;12.90;99.90;;;;;;5034103;28;20055;-83
2022/10/30 08:27:14;;;;;;;12.52;5.75;;;13.00;99.90;;;;;;5020702;28;20049;-83
2022/10/30 08:29:40;;;;;;;14.13;6.20;;;13.10;99.90;;;;;;5043166;28;20045;-83
2022/10/30 08:32:06;;;;;;;17.73;6.10;;;13.10;99.90;;;;;;5035090;28;20056;-83
2022/10/30 08:34:33;;;;;;;9.77;5.88;;;13.10;99.90;;;;;;5052572;28;20435;-83
2022/10/30 08:36:59;;;;;;;18.65;6.10;;;13.30;99.90;;;;;;5051404;28;20053;-82
2022/10/30 08:39:25;;;;;;;8.68;5.30;;;13.30;99.90;;;;;;5045844;28;20051;-82
2022/10/30 08:41:50;;;;;;;13.10;5.35;;;13.40;99.90;;;;;;5033337;28;20048;-83
2022/10/30 08:44:16;;;;;;;13.40;4.75;;;13.50;99.90;;;;;;5069216;28;20053;-83
2022/10/30 08:46:42;;;;;;;13.07;5.88;;;13.60;99.90;;;;;;5055238;28;20547;-84
2022/10/30 08:49:07;;;;;;;10.57;5.07;;;13.60;99.90;;;;;;5038498;28;20400;-83
2022/10/30 08:51:34;;;;;;;8.77;5.03;;;13.70;99.90;;;;;;5054899;28;20063;-83
2022/10/30 08:54:00;;;;;;;8.27;4.90;;;13.80;99.90;;;;;;5055225;28;20041;-82
2022/10/30 08:56:27;;;;;;;13.32;5.35;;;13.80;99.90;;;;;;5048256;28;20488;-82
2022/10/30 08:58:53;;;;;;;23.10;5.78;;;13.90;99.90;;;;;;5055624;28;20483;-83
2022/10/30 09:01:18;;;;;;;9.80;4.72;;;14.00;99.90;;;;;;5054706;28;20044;-82
2022/10/30 09:03:45;;;;;;;12.85;5.80;;;14.10;99.90;;;;;;5056411;28;20111;-83
2022/10/30 09:06:11;;;;;;;12.50;5.43;;;14.20;99.90;;;;;;5055731;28;20102;-82
2022/10/30 09:08:36;;;;;;;12.48;6.15;;;14.40;99.90;;;;;;5054640;28;20045;-82
2022/10/30 09:11:02;;;;;;;10.63;5.40;;;14.60;99.90;;;;;;5063934;28;20060;-82
2022/10/30 09:13:28;;;;;;;10.13;5.78;;;14.80;99.90;;;;;;5051225;28;20487;-82
2022/10/30 09:16:00;;;;;;;11.90;5.45;;;14.90;99.90;;;;;;5045478;28;20043;-82
2022/10/30 09:18:25;;;;;;;12.02;5.63;;;15.00;99.90;;;;;;5040451;28;20480;-82
2022/10/30 09:20:51;;;;;;;12.70;5.88;;;15.10;99.90;;;;;;5061751;28;20051;-83
2022/10/30 09:23:17;;;;;;;8.75;5.22;;;15.20;99.90;;;;;;5068725;28;20056;-83
2022/10/30 09:25:43;;;;;;;11.48;5.28;;;15.40;99.90;;;;;;5055106;28;20075;-82
2022/10/30 09:28:08;;;;;;;11.45;6.15;;;15.70;99.90;;;;;;5048875;28;20067;-81
2022/10/30 09:30:34;;;;;;;9.65;4.85;;;16.30;99.90;;;;;;5053728;28;20428;-82
2022/10/30 09:33:01;;;;;;;12.68;5.65;;;16.80;99.90;;;;;;5053057;28;20049;-82
2022/10/30 09:35:27;;;;;;;19.05;5.30;;;17.40;99.90;;;;;;5055031;28;20131;-82
2022/10/30 09:37:53;;;;;;;14.13;5.03;;;17.90;99.90;;;;;;5042133;28;20064;-83
2022/10/30 09:40:57;;;;;;;17.70;5.18;;;18.30;99.90;;;;;;5054794;28;20056;-83
2022/10/30 09:43:49;;;;;;;10.02;5.40;;;18.20;99.90;;;;;;5053878;28;20397;-83
2022/10/30 09:46:23;;;;;;;15.23;5.20;;;18.00;99.90;;;;;;5054645;28;20080;-83
2022/10/30 09:49:10;;;;;;;9.25;4.78;;;17.80;99.90;;;;;;5066499;28;20167;-84
2022/10/30 09:51:54;;;;;;;15.82;4.97;;;17.60;99.90;;;;;;5066823;28;20052;-83
2022/10/30 09:54:57;;;;;;;9.57;5.35;;;17.40;99.90;;;;;;5048534;28;20056;-82
2022/10/30 09:57:56;;;;;;;8.98;4.88;;;17.30;99.90;;;;;;5033966;28;20537;-82
2022/10/30 10:00:53;;;;;;;10.18;5.07;;;17.20;99.90;;;;;;5047806;28;20090;-82
2022/10/30 10:04:22;;;;;;;9.48;5.32;;;17.00;99.90;;;;;;5023629;28;20144;-81
2022/10/30 10:07:42;;;;;;;9.10;4.57;;;16.90;99.90;;;;;;5052802;28;20127;-81
2022/10/30 10:10:42;;;;;;;8.07;4.55;;;16.90;99.90;;;;;;5055141;28;20052;-82
2022/10/30 10:13:49;;;;;;;11.50;4.85;;;16.90;99.90;;;;;;5038410;28;20048;-81
2022/10/30 10:16:37;;;;;;;18.30;5.45;;;16.90;99.90;;;;;;5035863;28;20040;-83
2022/10/30 10:19:26;;;;;;;10.27;5.18;;;17.00;99.90;;;;;;5049480;28;20051;-84
2022/10/30 10:22:26;;;;;;;12.30;5.63;;;17.10;99.90;;;;;;5046999;28;20072;-85
2022/10/30 10:25:14;;;;;;;15.70;5.60;;;17.20;99.90;;;;;;5045674;28;20059;-82
2022/10/30 10:28:30;;;;;;;18.70;4.75;;;17.30;99.90;;;;;;5042058;28;20501;-82
2022/10/30 10:31:24;;;;;;;9.00;4.50;;;17.40;99.90;;;;;;5030904;28;20459;-85
2022/10/30 10:34:44;;;;;;;11.85;3.95;;;17.50;99.90;;;;;;5005205;28;20410;-82
2022/10/30 10:38:03;;;;;;;11.90;5.00;;;17.60;99.90;;;;;;5017395;28;20049;-81
2022/10/30 10:41:04;;;;;;;19.13;5.05;;;17.70;99.90;;;;;;4991897;28;20056;-81
2022/10/30 10:47:56;;;;;;;8.20;4.72;;;17.80;99.90;;;;;;5015412;28;20058;-80
2022/10/30 10:51:16;;;;;;;10.25;5.05;;;17.80;99.90;;;;;;5024127;28;20515;-80
2022/10/30 10:54:13;;;;;;;10.75;4.45;;;17.90;99.90;;;;;;5029754;28;20048;-79
2022/10/30 10:56:48;;;;;;;9.23;4.63;;;17.90;99.90;;;;;;4997315;28;20057;-83
2022/10/30 10:59:35;;;;;;;11.00;5.30;;;18.00;99.90;;;;;;5020622;28;20049;-83
2022/10/30 11:02:25;;;;;;;9.38;4.25;;;18.00;99.90;;;;;;5033028;28;20057;-84
2022/10/30 11:04:54;;;;;;;15.90;5.03;;;18.00;99.90;;;;;;5038206;28;20037;-83
2022/10/30 11:07:28;;;;;;;11.98;4.78;;;18.10;99.90;;;;;;5063821;28;20461;-83
2022/10/30 11:09:56;;;;;;;12.13;4.75;;;18.10;99.90;;;;;;5053169;28;20396;-83
2022/10/30 11:12:36;;;;;;;10.82;4.95;;;18.20;99.90;;;;;;5054141;28;20088;-82
2022/10/30 11:15:27;;;;;;;12.32;5.10;;;18.30;99.90;;;;;;5046676;28;20045;-83
2022/10/30 11:18:00;;;;;;;8.68;4.10;;;18.40;99.90;;;;;;5049740;28;20053;-83
2022/10/30 11:20:44;;;;;;;9.10;4.75;;;18.40;99.90;;;;;;5034416;28;20053;-83
2022/10/30 11:23:33;;;;;;;14.00;4.45;;;18.40;99.90;;;;;;5041621;28;20055;-82
2022/10/30 11:26:01;;;;;;;16.77;5.93;;;18.50;99.90;;;;;;5065880;28;20049;-83
2022/10/30 11:28:48;;;;;;;8.60;4.63;;;18.50;99.90;;;;;;5036453;28;20061;-83
2022/10/30 11:31:27;;;;;;;8.77;4.18;;;18.60;99.90;;;;;;5045723;28;20051;-83
2022/10/30 11:33:53;;;;;;;10.90;4.32;;;18.70;99.90;;;;;;5052757;28;20045;-83
2022/10/30 11:36:34;;;;;;;11.43;4.40;;;18.80;99.90;;;;;;5053325;28;20037;-81
2022/10/30 11:39:36;;;;;;;9.63;4.72;;;18.90;99.90;;;;;;5036742;28;20044;-82
2022/10/30 11:42:44;;;;;;;10.40;4.75;;;19.00;99.90;;;;;;5044698;28;20504;-82
2022/10/30 11:45:49;;;;;;;16.63;4.57;;;19.10;99.90;;;;;;5042180;28;20053;-82
2022/10/30 11:48:57;;;;;;;8.50;4.47;;;19.20;99.90;;;;;;5051040;28;20411;-82
2022/10/30 11:51:51;;;;;;;10.30;4.68;;;19.40;99.90;;;;;;5043762;28;20049;-82
2022/10/30 11:54:38;;;;;;;12.85;4.28;;;19.40;99.90;;;;;;5051526;28;20055;-80
2022/10/30 11:57:48;;;;;;;9.38;4.18;;;19.40;99.90;;;;;;5037684;28;20677;-84
2022/10/30 12:00:29;;;;;;;10.27;4.03;;;19.30;99.90;;;;;;5035204;28;20052;-79
2022/10/30 12:03:05;;;;;;;21.00;5.57;;;19.40;99.90;;;;;;5048130;28;20152;-80
2022/10/30 12:06:19;;;;;;;14.63;4.28;;;19.40;99.90;;;;;;5033119;28;20121;-80
2022/10/30 12:09:10;;;;;;;8.65;4.60;;;19.50;99.90;;;;;;5006557;28;20147;-81
2022/10/30 12:11:42;;;;;;;14.43;4.60;;;19.60;99.90;;;;;;4978251;28;20050;-80
2022/10/30 12:17:20;;;;;;;11.60;3.83;;;19.80;99.90;;;;;;5047961;28;20079;-80
2022/10/30 12:20:13;;;;;;;10.48;5.30;;;19.90;99.90;;;;;;5032977;28;20060;-80
2022/10/30 12:23:32;;;;;;;11.65;4.68;;;19.80;99.90;;;;;;5049377;28;20029;-80
2022/10/30 12:26:25;;;;;;;9.70;4.72;;;19.70;99.90;;;;;;5035589;28;20158;-80
2022/10/30 12:30:01;;;;;;;8.48;3.58;;;19.70;99.90;;;;;;5038851;28;20481;-83
2022/10/30 12:33:30;;;;;;;10.32;4.32;;;19.60;99.90;;;;;;5044755;28;20087;-80
2022/10/30 12:36:19;;;;;;;14.75;4.75;;;19.60;99.90;;;;;;5051607;28;20114;-81
2022/10/30 12:38:49;;;;;;;10.85;3.88;;;19.70;99.90;;;;;;5049611;28;20124;-81
2022/10/30 12:41:32;;;;;;;13.90;5.13;;;19.70;99.90;;;;;;5051766;28;20052;-80
2022/10/30 12:44:24;;;;;;;14.63;5.03;;;19.80;99.90;;;;;;5033784;28;20498;-80
2022/10/30 12:47:30;;;;;;;13.40;4.85;;;19.80;99.90;;;;;;5057600;28;20122;-80
2022/10/30 12:50:12;;;;;;;16.67;5.00;;;19.90;99.90;;;;;;5030110;28;20045;-82
2022/10/30 12:53:06;;;;;;;10.80;5.03;;;20.00;99.90;;;;;;5032542;28;20050;-81
2022/10/30 12:55:59;;;;;;;12.77;4.70;;;20.10;99.90;;;;;;5031509;28;20053;-81
2022/10/30 12:58:43;;;;;;;14.40;4.55;;;20.20;99.90;;;;;;5045372;28;20043;-81
2022/10/30 13:01:41;;;;;;;7.03;4.10;;;20.20;99.90;;;;;;5049472;28;20047;-80
2022/10/30 13:04:35;;;;;;;18.95;5.20;;;20.20;99.90;;;;;;5034702;28;20061;-80
2022/10/30 13:07:25;;;;;;;9.95;4.40;;;20.20;99.90;;;;;;5049932;28;20622;-79
2022/10/30 13:10:40;;;;;;;16.27;5.32;;;20.30;99.90;;;;;;5000387;28;20084;-79
2022/10/30 13:13:15;;;;;;;9.57;4.65;;;20.30;99.90;;;;;;5036165;28;20099;-80
2022/10/30 13:15:54;;;;;;;13.13;4.43;;;20.40;99.90;;;;;;5043678;28;20049;-80
2022/10/30 13:18:26;;;;;;;9.70;4.10;;;20.40;99.90;;;;;;5045207;28;20045;-80
2022/10/30 13:21:31;;;;;;;7.78;5.00;;;20.30;99.90;;;;;;5033698;28;20515;-81